createdAt,value
2018-12-07T00:00:24.259Z,989.77
2018-12-07T00:01:24.296Z,989.75
2018-12-07T00:02:24.224Z,989.81
2018-12-07T00:03:24.174Z,989.82
2018-12-07T00:04:24.166Z,989.79
2018-12-07T00:05:24.261Z,989.82
2018-12-07T00:06:24.095Z,989.83
2018-12-07T00:07:24.165Z,989.82
2018-12-07T00:08:24.064Z,989.84
2018-12-07T00:09:24.016Z,989.85
2018-12-07T00:10:24.172Z,989.84
2018-12-07T00:11:24.015Z,989.90
2018-12-07T00:12:23.963Z,989.91
2018-12-07T00:13:23.916Z,989.92
2018-12-07T00:14:23.923Z,989.93
2018-12-07T00:15:24.402Z,989.95
2018-12-07T00:16:23.894Z,989.91
2018-12-07T00:17:23.863Z,989.97
2018-12-07T00:18:23.809Z,989.96
2018-12-07T00:19:23.827Z,989.96
2018-12-07T00:20:23.869Z,989.99
2018-12-07T00:21:23.735Z,990.00
2018-12-07T00:22:23.695Z,990.01
2018-12-07T00:23:23.748Z,990.02
2018-12-07T00:25:23.728Z,990.05
2018-12-07T00:26:23.643Z,990.06
2018-12-07T00:27:23.596Z,990.13
2018-12-07T00:28:23.603Z,990.15
2018-12-07T00:29:23.669Z,990.13
2018-12-07T00:30:23.517Z,990.19
2018-12-07T00:31:23.552Z,990.18
2018-12-07T00:32:23.468Z,990.15
2018-12-07T00:33:23.456Z,990.19
2018-12-07T00:34:23.417Z,990.23
2018-12-07T00:35:23.448Z,990.22
2018-12-07T00:36:23.541Z,990.24
2018-12-07T00:37:23.436Z,990.28
2018-12-07T00:38:23.326Z,990.27
2018-12-07T00:39:23.565Z,990.26
2018-12-07T00:40:23.260Z,990.31
2018-12-07T00:41:23.223Z,990.28
2018-12-07T00:42:23.410Z,990.33
2018-12-07T00:43:23.196Z,990.36
2018-12-07T00:44:23.204Z,990.37
2018-12-07T00:45:23.220Z,990.36
2018-12-07T00:46:23.235Z,990.40
2018-12-07T00:47:23.218Z,990.41
2018-12-07T00:48:23.051Z,990.45
2018-12-07T00:49:23.089Z,990.45
2018-12-07T00:50:23.066Z,990.44
2018-12-07T00:51:22.975Z,990.46
2018-12-07T00:52:23.129Z,990.46
2018-12-07T00:53:22.938Z,990.47
2018-12-07T00:54:22.954Z,990.48
2018-12-07T00:55:22.926Z,990.47
2018-12-07T00:56:22.848Z,990.46
2018-12-07T00:57:22.985Z,990.43
2018-12-07T00:58:23.844Z,990.44
2018-12-07T00:59:22.797Z,990.46
2018-12-07T01:00:22.819Z,990.46
2018-12-07T01:01:22.741Z,990.46
2018-12-07T01:02:22.825Z,990.51
2018-12-07T01:03:22.730Z,990.49
2018-12-07T01:04:22.866Z,990.55
2018-12-07T01:05:22.646Z,990.52
2018-12-07T01:06:23.598Z,990.55
2018-12-07T01:07:24.398Z,990.55
2018-12-07T01:08:23.450Z,990.62
2018-12-07T01:09:22.828Z,990.62
2018-12-07T01:10:22.534Z,990.63
2018-12-07T01:11:22.634Z,990.68
2018-12-07T01:12:22.903Z,990.69
2018-12-07T01:13:22.481Z,990.70
2018-12-07T01:14:23.081Z,990.74
2018-12-07T01:15:22.365Z,990.74
2018-12-07T01:16:22.474Z,990.78
2018-12-07T01:17:22.557Z,990.80
2018-12-07T01:18:22.449Z,990.79
2018-12-07T01:19:22.349Z,990.81
2018-12-07T01:20:22.684Z,990.81
2018-12-07T01:21:22.245Z,990.79
2018-12-07T01:22:23.104Z,990.87
2018-12-07T01:23:22.956Z,990.90
2018-12-07T01:24:22.168Z,990.87
2018-12-07T01:25:23.641Z,990.93
2018-12-07T01:26:23.219Z,990.94
2018-12-07T01:27:22.065Z,990.97
2018-12-07T01:28:22.622Z,990.97
2018-12-07T01:29:22.086Z,990.98
2018-12-07T01:30:22.740Z,990.99
2018-12-07T01:31:22.304Z,991.01
2018-12-07T01:32:21.992Z,991.03
2018-12-07T01:33:22.879Z,991.01
2018-12-07T01:34:22.606Z,991.04
2018-12-07T01:35:22.232Z,991.07
2018-12-07T01:36:22.278Z,991.09
2018-12-07T01:37:22.569Z,991.07
2018-12-07T01:38:22.721Z,991.10
2018-12-07T01:39:22.569Z,991.12
2018-12-07T01:40:22.568Z,991.15
2018-12-07T01:41:22.310Z,991.22
2018-12-07T01:42:21.803Z,991.22
2018-12-07T01:43:22.284Z,991.27
2018-12-07T01:44:21.656Z,991.25
2018-12-07T01:45:21.627Z,991.23
2018-12-07T01:46:21.677Z,991.24
2018-12-07T01:47:21.633Z,991.24
2018-12-07T01:48:23.423Z,991.23
2018-12-07T01:49:22.519Z,991.21
2018-12-07T01:50:21.485Z,991.24
2018-12-07T01:51:21.509Z,991.27
2018-12-07T01:52:21.509Z,991.32
2018-12-07T01:53:21.444Z,991.31
2018-12-07T01:54:21.690Z,991.34
2018-12-07T01:55:21.460Z,991.39
2018-12-07T01:56:21.410Z,991.32
2018-12-07T01:57:21.526Z,991.38
2018-12-07T01:58:21.285Z,991.38
2018-12-07T01:59:21.310Z,991.41
2018-12-07T02:00:21.596Z,991.45
2018-12-07T02:01:21.314Z,991.44
2018-12-07T02:02:21.195Z,991.44
2018-12-07T02:03:21.256Z,991.47
2018-12-07T02:04:21.162Z,991.49
2018-12-07T02:05:21.815Z,991.49
2018-12-07T02:06:21.212Z,991.52
2018-12-07T02:07:21.465Z,991.57
2018-12-07T02:08:21.516Z,991.53
2018-12-07T02:09:21.795Z,991.48
2018-12-07T02:10:22.440Z,991.53
2018-12-07T02:11:21.000Z,991.48
2018-12-07T02:12:21.128Z,991.49
2018-12-07T02:13:20.924Z,991.50
2018-12-07T02:14:20.889Z,991.51
2018-12-07T02:15:21.243Z,991.55
2018-12-07T02:16:21.237Z,991.58
2018-12-07T02:17:21.167Z,991.59
2018-12-07T02:18:21.252Z,991.62
2018-12-07T02:20:21.260Z,991.66
2018-12-07T02:21:22.274Z,991.64
2018-12-07T02:22:20.953Z,991.69
2018-12-07T02:23:22.290Z,991.71
2018-12-07T02:24:20.692Z,991.72
2018-12-07T02:25:21.574Z,991.75
2018-12-07T02:26:21.408Z,991.73
2018-12-07T02:27:21.019Z,991.74
2018-12-07T02:28:20.555Z,991.75
2018-12-07T02:29:20.700Z,991.76
2018-12-07T02:30:20.954Z,991.75
2018-12-07T02:31:20.938Z,991.77
2018-12-07T02:32:21.023Z,991.77
2018-12-07T02:33:21.967Z,991.76
2018-12-07T02:34:21.138Z,991.75
2018-12-07T02:35:22.117Z,991.69
2018-12-07T02:36:20.853Z,991.70
2018-12-07T02:37:20.293Z,991.69
2018-12-07T02:38:20.318Z,991.70
2018-12-07T02:39:20.346Z,991.70
2018-12-07T02:40:20.400Z,991.69
2018-12-07T02:41:20.481Z,991.67
2018-12-07T02:42:20.217Z,991.72
2018-12-07T02:43:20.175Z,991.73
2018-12-07T02:44:20.421Z,991.75
2018-12-07T02:45:20.288Z,991.76
2018-12-07T02:46:20.073Z,991.81
2018-12-07T02:47:20.033Z,991.82
2018-12-07T02:48:20.023Z,991.81
2018-12-07T02:49:20.136Z,991.85
2018-12-07T02:50:22.727Z,991.81
2018-12-07T02:52:21.167Z,991.84
2018-12-07T02:53:21.039Z,991.82
2018-12-07T02:54:21.711Z,991.84
2018-12-07T02:55:21.267Z,991.85
2018-12-07T02:56:20.865Z,991.85
2018-12-07T02:57:20.326Z,991.76
2018-12-07T02:58:19.777Z,991.79
2018-12-07T02:59:19.902Z,991.76
2018-12-07T03:00:19.789Z,991.82
2018-12-07T03:01:19.690Z,991.82
2018-12-07T03:02:19.642Z,991.85
2018-12-07T03:03:19.637Z,991.87
2018-12-07T03:04:19.592Z,991.88
2018-12-07T03:05:19.672Z,991.90
2018-12-07T03:06:19.766Z,991.92
2018-12-07T03:07:19.558Z,991.94
2018-12-07T03:08:19.562Z,991.98
2018-12-07T03:09:19.747Z,991.95
2018-12-07T03:10:19.462Z,991.96
2018-12-07T03:11:19.509Z,991.98
2018-12-07T03:12:19.528Z,991.98
2018-12-07T03:13:19.409Z,991.98
2018-12-07T03:14:19.356Z,991.98
2018-12-07T03:15:19.446Z,991.95
2018-12-07T03:16:19.294Z,991.94
2018-12-07T03:17:19.378Z,991.92
2018-12-07T03:18:19.474Z,991.92
2018-12-07T03:19:19.221Z,991.93
2018-12-07T03:20:19.191Z,991.94
2018-12-07T03:21:19.159Z,991.96
2018-12-07T03:22:19.220Z,991.98
2018-12-07T03:23:19.104Z,991.98
2018-12-07T03:24:19.107Z,991.97
2018-12-07T03:25:19.200Z,992.00
2018-12-07T03:26:19.024Z,991.99
2018-12-07T03:27:19.054Z,992.01
2018-12-07T03:28:19.263Z,991.99
2018-12-07T03:29:19.054Z,992.00
2018-12-07T03:30:19.589Z,992.01
2018-12-07T03:31:19.645Z,992.02
2018-12-07T03:32:19.658Z,992.00
2018-12-07T03:33:18.863Z,992.00
2018-12-07T03:34:18.923Z,992.03
2018-12-07T03:35:18.784Z,992.00
2018-12-07T03:36:18.768Z,992.00
2018-12-07T03:37:18.824Z,991.99
2018-12-07T03:38:18.924Z,991.96
2018-12-07T03:39:18.963Z,991.91
2018-12-07T03:40:18.736Z,991.87
2018-12-07T03:41:18.649Z,991.84
2018-12-07T03:42:18.626Z,991.83
2018-12-07T03:43:18.576Z,991.82
2018-12-07T03:44:18.665Z,991.77
2018-12-07T03:45:18.740Z,991.78
2018-12-07T03:46:18.482Z,991.75
2018-12-07T03:47:18.497Z,991.82
2018-12-07T03:48:18.448Z,991.85
2018-12-07T03:49:18.421Z,991.86
2018-12-07T03:50:18.513Z,991.85
2018-12-07T03:51:18.495Z,991.88
2018-12-07T03:52:18.371Z,991.87
2018-12-07T03:53:18.341Z,991.87
2018-12-07T03:54:18.892Z,991.89
2018-12-07T03:55:18.594Z,991.87
2018-12-07T03:56:20.165Z,991.87
2018-12-07T03:57:18.750Z,991.84
2018-12-07T03:58:18.254Z,991.83
2018-12-07T03:59:18.433Z,991.81
2018-12-07T04:00:18.563Z,991.79
2018-12-07T04:01:18.657Z,991.78
2018-12-07T04:02:19.280Z,991.80
2018-12-07T04:03:18.261Z,991.75
2018-12-07T04:04:18.785Z,991.77
2018-12-07T04:05:18.362Z,991.71
2018-12-07T04:06:18.369Z,991.62
2018-12-07T04:07:18.005Z,991.58
2018-12-07T04:08:18.003Z,991.60
2018-12-07T04:09:17.904Z,991.53
2018-12-07T04:10:17.924Z,991.55
2018-12-07T04:11:17.869Z,991.57
2018-12-07T04:12:17.844Z,991.54
2018-12-07T04:13:17.989Z,991.58
2018-12-07T04:14:17.786Z,991.58
2018-12-07T04:15:17.775Z,991.58
2018-12-07T04:16:17.779Z,991.57
2018-12-07T04:17:17.698Z,991.57
2018-12-07T04:18:17.758Z,991.55
2018-12-07T04:19:17.683Z,991.52
2018-12-07T04:20:17.632Z,991.53
2018-12-07T04:21:17.580Z,991.53
2018-12-07T04:22:17.582Z,991.51
2018-12-07T04:23:17.658Z,991.51
2018-12-07T04:24:17.499Z,991.48
2018-12-07T04:25:17.569Z,991.48
2018-12-07T04:26:17.459Z,991.46
2018-12-07T04:27:17.484Z,991.43
2018-12-07T04:28:17.408Z,991.45
2018-12-07T04:29:17.474Z,991.41
2018-12-07T04:30:17.355Z,991.44
2018-12-07T04:31:17.481Z,991.42
2018-12-07T04:32:17.303Z,991.42
2018-12-07T04:33:17.280Z,991.41
2018-12-07T04:34:17.265Z,991.38
2018-12-07T04:35:17.318Z,991.37
2018-12-07T04:36:17.225Z,991.36
2018-12-07T04:37:17.174Z,991.36
2018-12-07T04:39:17.199Z,991.32
2018-12-07T04:40:17.097Z,991.32
2018-12-07T04:41:17.184Z,991.30
2018-12-07T04:42:17.045Z,991.31
2018-12-07T04:43:17.030Z,991.27
2018-12-07T04:44:16.975Z,991.28
2018-12-07T04:45:16.962Z,991.27
2018-12-07T04:46:16.984Z,991.26
2018-12-07T04:47:16.953Z,991.27
2018-12-07T04:48:16.871Z,991.27
2018-12-07T04:49:16.865Z,991.26
2018-12-07T04:50:16.846Z,991.26
2018-12-07T04:51:16.900Z,991.28
2018-12-07T04:52:16.790Z,991.29
2018-12-07T04:53:16.765Z,991.29
2018-12-07T04:54:16.962Z,991.28
2018-12-07T04:55:16.741Z,991.29
2018-12-07T04:56:16.927Z,991.29
2018-12-07T04:57:16.659Z,991.28
2018-12-07T04:58:16.659Z,991.31
2018-12-07T04:59:16.767Z,991.27
2018-12-07T05:00:16.620Z,991.24
2018-12-07T05:01:16.617Z,991.22
2018-12-07T05:03:16.591Z,991.20
2018-12-07T05:04:16.556Z,991.20
2018-12-07T05:06:16.429Z,991.16
2018-12-07T05:07:16.700Z,991.14
2018-12-07T05:08:16.340Z,991.17
2018-12-07T05:09:16.342Z,991.17
2018-12-07T05:10:16.321Z,991.16
2018-12-07T05:11:16.268Z,991.16
2018-12-07T05:12:16.240Z,991.17
2018-12-07T05:13:16.323Z,991.15
2018-12-07T05:14:16.233Z,991.14
2018-12-07T05:15:16.165Z,991.09
2018-12-07T05:16:16.140Z,991.12
2018-12-07T05:17:16.115Z,991.10
2018-12-07T05:18:16.168Z,991.10
2018-12-07T05:19:16.170Z,991.08
2018-12-07T05:20:16.033Z,991.11
2018-12-07T05:21:16.029Z,991.08
2018-12-07T05:22:15.988Z,991.10
2018-12-07T05:23:15.951Z,991.15
2018-12-07T05:24:16.050Z,991.15
2018-12-07T05:25:15.887Z,991.13
2018-12-07T05:26:15.897Z,991.12
2018-12-07T05:27:15.943Z,991.13
2018-12-07T05:28:15.834Z,991.11
2018-12-07T05:29:15.883Z,991.11
2018-12-07T05:30:15.772Z,991.08
2018-12-07T05:31:16.830Z,991.10
2018-12-07T05:32:15.775Z,991.06
2018-12-07T05:33:15.702Z,991.03
2018-12-07T05:34:15.788Z,991.07
2018-12-07T05:35:15.638Z,991.05
2018-12-07T05:36:15.642Z,991.08
2018-12-07T05:37:15.603Z,991.03
2018-12-07T05:38:15.552Z,991.03
2018-12-07T05:39:15.636Z,991.04
2018-12-07T05:40:15.578Z,991.03
2018-12-07T05:41:16.568Z,990.98
2018-12-07T05:42:15.487Z,991.02
2018-12-07T05:43:15.437Z,991.01
2018-12-07T05:44:15.393Z,990.99
2018-12-07T05:45:15.429Z,990.98
2018-12-07T05:46:15.354Z,990.95
2018-12-07T05:47:15.313Z,990.91
2018-12-07T05:48:15.315Z,990.90
2018-12-07T05:49:16.216Z,990.92
2018-12-07T05:50:15.267Z,990.92
2018-12-07T05:51:15.329Z,990.91
2018-12-07T05:52:15.190Z,990.92
2018-12-07T05:53:15.143Z,990.92
2018-12-07T05:54:15.147Z,990.94
2018-12-07T05:55:15.111Z,990.94
2018-12-07T05:56:15.190Z,990.92
2018-12-07T05:57:15.071Z,990.94
2018-12-07T05:58:15.052Z,990.94
2018-12-07T05:59:15.004Z,990.92
2018-12-07T06:00:14.993Z,990.93
2018-12-07T06:01:15.053Z,990.91
2018-12-07T06:02:14.943Z,990.94
2018-12-07T06:03:14.926Z,990.93
2018-12-07T06:04:14.879Z,990.94
2018-12-07T06:05:14.892Z,990.93
2018-12-07T06:06:14.940Z,990.91
2018-12-07T06:07:14.809Z,990.91
2018-12-07T06:08:14.755Z,990.92
2018-12-07T06:09:14.744Z,990.88
2018-12-07T06:10:14.696Z,990.80
2018-12-07T06:11:14.795Z,990.76
2018-12-07T06:12:14.648Z,990.75
2018-12-07T06:13:14.639Z,990.74
2018-12-07T06:14:14.652Z,990.69
2018-12-07T06:15:14.586Z,990.72
2018-12-07T06:16:14.621Z,990.70
2018-12-07T06:17:14.526Z,990.71
2018-12-07T06:18:14.513Z,990.65
2018-12-07T06:19:14.494Z,990.64
2018-12-07T06:20:14.452Z,990.66
2018-12-07T06:21:14.429Z,990.61
2018-12-07T06:22:14.502Z,990.64
2018-12-07T06:23:14.364Z,990.58
2018-12-07T06:24:14.328Z,990.60
2018-12-07T06:25:14.310Z,990.58
2018-12-07T06:26:14.356Z,990.56
2018-12-07T06:27:14.669Z,990.56
2018-12-07T06:28:14.357Z,990.54
2018-12-07T06:29:14.219Z,990.53
2018-12-07T06:30:14.207Z,990.48
2018-12-07T06:31:14.160Z,990.51
2018-12-07T06:32:14.128Z,990.45
2018-12-07T06:33:14.193Z,990.42
2018-12-07T06:34:14.079Z,990.42
2018-12-07T06:35:14.066Z,990.42
2018-12-07T06:36:14.000Z,990.38
2018-12-07T06:37:13.986Z,990.42
2018-12-07T06:38:14.330Z,990.40
2018-12-07T06:39:13.940Z,990.40
2018-12-07T06:40:13.937Z,990.38
2018-12-07T06:41:13.909Z,990.39
2018-12-07T06:42:13.866Z,990.37
2018-12-07T06:43:13.926Z,990.35
2018-12-07T06:44:13.816Z,990.33
2018-12-07T06:45:13.781Z,990.32
2018-12-07T06:46:13.772Z,990.37
2018-12-07T06:47:13.760Z,990.33
2018-12-07T06:48:13.795Z,990.34
2018-12-07T06:49:13.667Z,990.31
2018-12-07T06:50:13.667Z,990.31
2018-12-07T06:51:13.603Z,990.29
2018-12-07T06:52:13.593Z,990.27
2018-12-07T06:53:13.741Z,990.24
2018-12-07T06:54:13.553Z,990.25
2018-12-07T06:55:13.508Z,990.21
2018-12-07T06:56:13.489Z,990.21
2018-12-07T06:57:13.457Z,990.20
2018-12-07T06:58:13.452Z,990.17
2018-12-07T06:59:13.521Z,990.16
2018-12-07T07:00:13.589Z,990.17
2018-12-07T07:01:13.349Z,990.20
2018-12-07T07:02:13.330Z,990.17
2018-12-07T07:03:13.333Z,990.19
2018-12-07T07:04:13.277Z,990.20
2018-12-07T07:05:13.361Z,990.21
2018-12-07T07:06:13.227Z,990.24
2018-12-07T07:07:13.198Z,990.20
2018-12-07T07:08:13.177Z,990.22
2018-12-07T07:09:13.132Z,990.22
2018-12-07T07:10:13.219Z,990.17
2018-12-07T07:11:13.083Z,990.17
2018-12-07T07:12:13.063Z,990.14
2018-12-07T07:13:12.999Z,990.11
2018-12-07T07:14:12.995Z,990.08
2018-12-07T07:15:13.035Z,990.10
2018-12-07T07:16:12.962Z,990.09
2018-12-07T07:17:12.941Z,990.09
2018-12-07T07:18:12.920Z,990.09
2018-12-07T07:19:12.877Z,990.05
2018-12-07T07:20:12.953Z,990.04
2018-12-07T07:21:12.830Z,990.02
2018-12-07T07:22:12.856Z,989.99
2018-12-07T07:23:12.785Z,990.00
2018-12-07T07:24:12.779Z,989.96
2018-12-07T07:25:12.835Z,989.94
2018-12-07T07:26:12.666Z,989.91
2018-12-07T07:27:12.663Z,989.89
2018-12-07T07:28:12.636Z,989.92
2018-12-07T07:29:12.608Z,989.93
2018-12-07T07:30:12.733Z,989.98
2018-12-07T07:31:12.573Z,989.93
2018-12-07T07:32:12.583Z,989.92
2018-12-07T07:33:12.510Z,989.90
2018-12-07T07:34:12.474Z,989.86
2018-12-07T07:35:12.484Z,989.87
2018-12-07T07:36:12.622Z,989.84
2018-12-07T07:37:12.395Z,989.82
2018-12-07T07:38:12.333Z,989.79
2018-12-07T07:39:12.390Z,989.76
2018-12-07T07:40:12.424Z,989.74
2018-12-07T07:41:12.317Z,989.77
2018-12-07T07:42:12.348Z,989.76
2018-12-07T07:43:12.233Z,989.76
2018-12-07T07:44:12.253Z,989.75
2018-12-07T07:45:12.213Z,989.69
2018-12-07T07:46:12.148Z,989.68
2018-12-07T07:47:12.235Z,989.67
2018-12-07T07:48:12.093Z,989.68
2018-12-07T07:49:12.075Z,989.67
2018-12-07T07:50:12.056Z,989.67
2018-12-07T07:51:12.038Z,989.65
2018-12-07T07:52:12.089Z,989.69
2018-12-07T07:53:11.971Z,989.68
2018-12-07T07:54:11.940Z,989.66
2018-12-07T07:55:11.936Z,989.66
2018-12-07T07:56:15.433Z,989.65
2018-12-07T07:57:11.971Z,989.64
2018-12-07T07:58:11.843Z,989.64
2018-12-07T07:59:11.820Z,989.60
2018-12-07T08:00:11.796Z,989.58
2018-12-07T08:01:11.767Z,989.62
2018-12-07T08:02:11.841Z,989.61
2018-12-07T08:03:11.762Z,989.62
2018-12-07T08:04:11.694Z,989.61
2018-12-07T08:05:11.662Z,989.55
2018-12-07T08:06:11.623Z,989.53
2018-12-07T08:07:11.608Z,989.55
2018-12-07T08:08:11.678Z,989.57
2018-12-07T08:09:12.338Z,989.50
2018-12-07T08:10:11.527Z,989.45
2018-12-07T08:11:11.481Z,989.46
2018-12-07T08:12:11.485Z,989.46
2018-12-07T08:13:11.408Z,989.46
2018-12-07T08:14:11.562Z,989.50
2018-12-07T08:15:11.385Z,989.50
2018-12-07T08:16:11.354Z,989.51
2018-12-07T08:17:11.333Z,989.49
2018-12-07T08:18:11.288Z,989.47
2018-12-07T08:19:11.271Z,989.48
2018-12-07T08:20:11.346Z,989.44
2018-12-07T08:21:11.205Z,989.44
2018-12-07T08:22:11.212Z,989.41
2018-12-07T08:23:14.636Z,989.44
2018-12-07T08:24:11.131Z,989.41
2018-12-07T08:25:11.339Z,989.43
2018-12-07T08:26:11.062Z,989.44
2018-12-07T08:27:11.078Z,989.43
2018-12-07T08:28:11.033Z,989.41
2018-12-07T08:29:11.017Z,989.40
2018-12-07T08:30:11.072Z,989.40
2018-12-07T08:31:11.228Z,989.39
2018-12-07T08:32:10.939Z,989.40
2018-12-07T08:33:10.901Z,989.39
2018-12-07T08:34:10.879Z,989.39
2018-12-07T08:35:10.936Z,989.40
2018-12-07T08:36:10.848Z,989.39
2018-12-07T08:37:10.791Z,989.37
2018-12-07T08:38:10.780Z,989.34
2018-12-07T08:39:10.734Z,989.34
2018-12-07T08:40:10.710Z,989.37
2018-12-07T08:41:10.784Z,989.35
2018-12-07T08:42:10.655Z,989.36
2018-12-07T08:43:10.632Z,989.41
2018-12-07T08:44:10.614Z,989.37
2018-12-07T08:45:10.683Z,989.39
2018-12-07T08:46:10.654Z,989.43
2018-12-07T08:47:10.514Z,989.41
2018-12-07T08:48:10.487Z,989.42
2018-12-07T08:49:10.480Z,989.41
2018-12-07T08:50:10.427Z,989.39
2018-12-07T08:51:10.409Z,989.39
2018-12-07T08:52:10.477Z,989.38
2018-12-07T08:53:10.358Z,989.40
2018-12-07T08:54:10.428Z,989.44
2018-12-07T08:55:10.315Z,989.45
2018-12-07T08:56:10.274Z,989.41
2018-12-07T08:57:10.259Z,989.45
2018-12-07T08:58:10.353Z,989.47
2018-12-07T08:59:10.179Z,989.47
2018-12-07T09:00:10.209Z,989.47
2018-12-07T09:01:10.149Z,989.47
2018-12-07T09:02:10.117Z,989.46
2018-12-07T09:03:10.246Z,989.46
2018-12-07T09:04:10.094Z,989.39
2018-12-07T09:05:10.058Z,989.39
2018-12-07T09:06:10.007Z,989.36
2018-12-07T09:07:09.971Z,989.34
2018-12-07T09:08:15.098Z,989.30
2018-12-07T09:09:09.925Z,989.31
2018-12-07T09:10:09.891Z,989.29
2018-12-07T09:11:09.872Z,989.28
2018-12-07T09:12:09.882Z,989.31
2018-12-07T09:13:09.882Z,989.29
2018-12-07T09:14:10.065Z,989.31
2018-12-07T09:15:09.832Z,989.29
2018-12-07T09:16:09.742Z,989.28
2018-12-07T09:17:09.712Z,989.26
2018-12-07T09:18:09.715Z,989.26
2018-12-07T09:19:09.693Z,989.30
2018-12-07T09:20:10.014Z,989.34
2018-12-07T09:21:09.595Z,989.34
2018-12-07T09:22:09.570Z,989.39
2018-12-07T09:23:09.647Z,989.40
2018-12-07T09:24:09.544Z,989.38
2018-12-07T09:25:09.641Z,989.36
2018-12-07T09:26:09.482Z,989.34
2018-12-07T09:27:09.436Z,989.33
2018-12-07T09:28:09.412Z,989.34
2018-12-07T09:29:09.382Z,989.35
2018-12-07T09:30:09.397Z,989.41
2018-12-07T09:31:09.418Z,989.46
2018-12-07T09:32:09.312Z,989.47
2018-12-07T09:33:09.281Z,989.47
2018-12-07T09:34:09.251Z,989.51
2018-12-07T09:35:09.226Z,989.57
2018-12-07T09:36:09.253Z,989.60
2018-12-07T09:37:09.276Z,989.63
2018-12-07T09:38:13.073Z,989.65
2018-12-07T09:39:09.120Z,989.63
2018-12-07T09:40:09.097Z,989.64
2018-12-07T09:41:09.074Z,989.65
2018-12-07T09:42:09.184Z,989.64
2018-12-07T09:43:09.010Z,989.66
2018-12-07T09:44:08.989Z,989.64
2018-12-07T09:45:08.958Z,989.63
2018-12-07T09:46:08.950Z,989.70
2018-12-07T09:47:08.935Z,989.70
2018-12-07T09:48:08.994Z,989.75
2018-12-07T09:49:08.838Z,989.70
2018-12-07T09:50:08.837Z,989.69
2018-12-07T09:51:08.794Z,989.69
2018-12-07T09:52:08.786Z,989.73
2018-12-07T09:53:08.825Z,989.71
2018-12-07T09:54:08.707Z,989.73
2018-12-07T09:55:08.690Z,989.73
2018-12-07T09:56:08.721Z,989.73
2018-12-07T09:57:08.631Z,989.71
2018-12-07T09:58:08.686Z,989.71
2018-12-07T09:59:08.588Z,989.69
2018-12-07T10:00:08.574Z,989.72
2018-12-07T10:01:08.519Z,989.73
2018-12-07T10:02:08.497Z,989.76
2018-12-07T10:03:08.607Z,989.72
2018-12-07T10:04:08.442Z,989.74
2018-12-07T10:05:08.440Z,989.73
2018-12-07T10:06:08.393Z,989.71
2018-12-07T10:07:08.372Z,989.72
2018-12-07T10:08:08.344Z,989.74
2018-12-07T10:09:08.483Z,989.74
2018-12-07T10:10:08.288Z,989.71
2018-12-07T10:11:08.264Z,989.71
2018-12-07T10:12:08.233Z,989.70
2018-12-07T10:13:08.350Z,989.72
2018-12-07T10:14:08.282Z,989.77
2018-12-07T10:15:08.189Z,989.79
2018-12-07T10:16:08.109Z,989.81
2018-12-07T10:17:08.087Z,989.79
2018-12-07T10:18:08.066Z,989.83
2018-12-07T10:19:08.162Z,989.82
2018-12-07T10:20:08.028Z,989.82
2018-12-07T10:21:08.019Z,989.79
2018-12-07T10:22:07.966Z,989.79
2018-12-07T10:23:07.927Z,989.78
2018-12-07T10:24:07.938Z,989.78
2018-12-07T10:25:07.916Z,989.78
2018-12-07T10:26:07.843Z,989.81
2018-12-07T10:27:07.848Z,989.84
2018-12-07T10:28:07.809Z,989.81
2018-12-07T10:29:09.053Z,989.87
2018-12-07T10:30:09.789Z,989.85
2018-12-07T10:31:09.421Z,989.90
2018-12-07T10:32:08.441Z,989.93
2018-12-07T10:33:08.914Z,989.96
2018-12-07T10:34:08.356Z,989.93
2018-12-07T10:35:10.010Z,989.88
2018-12-07T10:36:07.694Z,989.84
2018-12-07T10:37:07.554Z,989.81
2018-12-07T10:38:08.503Z,989.82
2018-12-07T10:39:08.301Z,989.80
2018-12-07T10:40:08.363Z,989.83
2018-12-07T10:41:07.542Z,989.81
2018-12-07T10:42:07.405Z,989.84
2018-12-07T10:43:07.380Z,989.81
2018-12-07T10:44:07.443Z,989.88
2018-12-07T10:45:07.354Z,989.88
2018-12-07T10:46:07.297Z,989.93
2018-12-07T10:47:07.307Z,989.93
2018-12-07T10:48:08.904Z,989.97
2018-12-07T10:49:07.317Z,990.01
2018-12-07T10:50:07.200Z,990.06
2018-12-07T10:51:08.080Z,990.11
2018-12-07T10:52:07.260Z,990.11
2018-12-07T10:53:07.169Z,990.12
2018-12-07T10:54:07.082Z,990.14
2018-12-07T10:55:08.119Z,990.15
2018-12-07T10:56:07.000Z,990.15
2018-12-07T10:57:07.132Z,990.15
2018-12-07T10:58:07.081Z,990.17
2018-12-07T10:59:06.968Z,990.22
2018-12-07T11:00:06.938Z,990.21
2018-12-07T11:01:06.957Z,990.23
2018-12-07T11:02:06.878Z,990.25
2018-12-07T11:03:06.953Z,990.25
2018-12-07T11:04:06.856Z,990.26
2018-12-07T11:05:06.815Z,990.30
2018-12-07T11:06:06.879Z,990.29
2018-12-07T11:07:06.745Z,990.30
2018-12-07T11:08:06.826Z,990.31
2018-12-07T11:09:06.702Z,990.34
2018-12-07T11:10:06.644Z,990.37
2018-12-07T11:11:06.624Z,990.38
2018-12-07T11:12:06.594Z,990.42
2018-12-07T11:13:06.687Z,990.44
2018-12-07T11:14:06.577Z,990.45
2018-12-07T11:15:06.514Z,990.49
2018-12-07T11:16:06.503Z,990.47
2018-12-07T11:17:06.456Z,990.50
2018-12-07T11:18:06.457Z,990.51
2018-12-07T11:19:06.544Z,990.48
2018-12-07T11:20:06.383Z,990.51
2018-12-07T11:21:06.363Z,990.53
2018-12-07T11:22:06.336Z,990.54
2018-12-07T11:23:06.347Z,990.57
2018-12-07T11:24:06.283Z,990.55
2018-12-07T11:25:06.364Z,990.59
2018-12-07T11:26:06.221Z,990.58
2018-12-07T11:27:07.871Z,990.57
2018-12-07T11:28:06.186Z,990.54
2018-12-07T11:29:07.558Z,990.55
2018-12-07T11:30:08.538Z,990.56
2018-12-07T11:31:08.154Z,990.55
2018-12-07T11:32:06.072Z,990.56
2018-12-07T11:33:06.041Z,990.53
2018-12-07T11:34:06.020Z,990.54
2018-12-07T11:35:05.996Z,990.51
2018-12-07T11:36:08.264Z,990.52
2018-12-07T11:37:05.936Z,990.51
2018-12-07T11:38:05.898Z,990.54
2018-12-07T11:39:05.868Z,990.57
2018-12-07T11:40:05.922Z,990.56
2018-12-07T11:41:05.919Z,990.61
2018-12-07T11:42:05.780Z,990.65
2018-12-07T11:43:05.775Z,990.66
2018-12-07T11:44:05.779Z,990.65
2018-12-07T11:45:05.774Z,990.62
2018-12-07T11:46:05.784Z,990.61
2018-12-07T11:47:05.711Z,990.62
2018-12-07T11:48:05.617Z,990.58
2018-12-07T11:49:05.636Z,990.59
2018-12-07T11:50:05.566Z,990.60
2018-12-07T11:51:05.662Z,990.62
2018-12-07T11:52:05.552Z,990.67
2018-12-07T11:53:05.513Z,990.68
2018-12-07T11:54:05.491Z,990.68
2018-12-07T11:55:05.498Z,990.67
2018-12-07T11:56:05.553Z,990.68
2018-12-07T11:57:05.390Z,990.72
2018-12-07T11:58:05.369Z,990.72
2018-12-07T11:59:05.392Z,990.74
2018-12-07T12:00:05.319Z,990.73
2018-12-07T12:01:05.283Z,990.75
2018-12-07T12:02:05.365Z,990.77
2018-12-07T12:03:05.257Z,990.79
2018-12-07T12:04:05.199Z,990.79
2018-12-07T12:05:05.226Z,990.82
2018-12-07T12:06:05.173Z,990.83
2018-12-07T12:07:05.275Z,990.83
2018-12-07T12:08:05.225Z,990.83
2018-12-07T12:09:05.136Z,990.81
2018-12-07T12:10:05.072Z,990.81
2018-12-07T12:11:05.080Z,990.81
2018-12-07T12:12:05.011Z,990.86
2018-12-07T12:13:05.139Z,990.87
2018-12-07T12:14:04.998Z,990.92
2018-12-07T12:15:04.897Z,990.91
2018-12-07T12:16:06.248Z,990.94
2018-12-07T12:17:05.373Z,990.96
2018-12-07T12:18:04.923Z,990.96
2018-12-07T12:19:04.803Z,991.02
2018-12-07T12:20:04.736Z,990.99
2018-12-07T12:21:04.759Z,991.03
2018-12-07T12:22:04.708Z,990.99
2018-12-07T12:23:57.252Z,991.07
2018-12-07T12:24:57.093Z,991.09
2018-12-07T12:25:57.082Z,991.12
2018-12-07T12:26:57.040Z,991.18
2018-12-07T12:27:57.046Z,991.19
2018-12-07T12:28:57.097Z,991.18
2018-12-07T12:29:56.968Z,991.19
2018-12-07T12:30:56.962Z,991.20
2018-12-07T12:31:56.895Z,991.23
2018-12-07T12:32:56.892Z,991.24
2018-12-07T12:33:57.113Z,991.19
2018-12-07T12:34:56.858Z,991.19